createdAt,value
2022-10-22T00:01:18.001Z,29.50
2022-10-22T00:03:45.209Z,29.05
2022-10-22T00:06:12.045Z,30.27
2022-10-22T00:08:39.038Z,29.15
2022-10-22T00:11:18.113Z,28.80
2022-10-22T00:16:12.928Z,28.85
2022-10-22T00:18:57.973Z,29.08
2022-10-22T00:21:25.725Z,29.95
2022-10-22T00:23:52.354Z,30.15
2022-10-22T00:26:20.190Z,29.38
2022-10-22T00:28:46.997Z,29.88
2022-10-22T00:31:15.697Z,27.73
2022-10-22T00:33:42.763Z,28.83
2022-10-22T00:36:09.310Z,30.52
2022-10-22T00:38:39.128Z,29.30
2022-10-22T00:41:06.661Z,28.95
2022-10-22T00:43:33.425Z,29.05
2022-10-22T00:46:00.290Z,29.42
2022-10-22T00:48:30.567Z,29.50
2022-10-22T00:50:59.586Z,29.42
2022-10-22T00:54:28.411Z,28.98
2022-10-22T00:56:55.088Z,30.88
2022-10-22T00:59:22.308Z,32.05
2022-10-22T01:01:50.386Z,31.17
2022-10-22T01:04:26.525Z,30.70
2022-10-22T01:06:53.177Z,30.23
2022-10-22T01:09:42.276Z,33.42
2022-10-22T01:12:41.442Z,30.75
2022-10-22T01:15:08.460Z,27.35
2022-10-22T01:18:08.262Z,29.45
2022-10-22T01:20:58.213Z,27.70
2022-10-22T01:23:36.461Z,26.65
2022-10-22T01:26:20.675Z,27.80
2022-10-22T01:28:53.415Z,27.17
2022-10-22T01:31:23.760Z,27.92
2022-10-22T01:33:53.533Z,29.92
2022-10-22T01:36:21.871Z,28.05
2022-10-22T01:38:51.119Z,28.02
2022-10-22T01:41:17.972Z,27.80
2022-10-22T01:43:45.459Z,31.42
2022-10-22T01:46:16.942Z,29.50
2022-10-22T01:49:16.194Z,29.90
2022-10-22T01:52:06.192Z,29.75
2022-10-22T01:54:44.647Z,29.55
2022-10-22T01:57:36.740Z,31.15
2022-10-22T02:00:10.111Z,31.38
2022-10-22T02:05:37.022Z,32.08
2022-10-22T02:08:16.060Z,29.38
2022-10-22T02:10:46.672Z,28.27
2022-10-22T02:13:18.576Z,31.42
2022-10-22T02:15:46.957Z,30.63
2022-10-22T02:18:15.977Z,32.08
2022-10-22T02:20:43.634Z,32.28
2022-10-22T02:23:11.718Z,31.75
2022-10-22T02:25:42.671Z,30.65
2022-10-22T02:28:20.388Z,30.83
2022-10-22T02:30:54.302Z,32.33
2022-10-22T02:33:47.320Z,32.30
2022-10-22T02:36:16.890Z,28.50
2022-10-22T02:38:44.596Z,27.75
2022-10-22T02:41:11.266Z,29.50
2022-10-22T02:43:58.406Z,27.90
2022-10-22T02:46:26.033Z,27.83
2022-10-22T02:48:52.711Z,25.52
2022-10-22T02:51:27.551Z,25.75
2022-10-22T02:53:54.191Z,24.65
2022-10-22T02:56:20.737Z,23.63
2022-10-22T02:58:47.478Z,25.38
2022-10-22T03:01:16.131Z,26.00
2022-10-22T03:03:43.304Z,23.60
2022-10-22T03:06:10.192Z,24.65
2022-10-22T03:08:36.738Z,23.00
2022-10-22T03:11:24.409Z,21.88
2022-10-22T03:13:51.042Z,22.50
2022-10-22T03:16:17.991Z,23.05
2022-10-22T03:18:44.482Z,21.75
2022-10-22T03:21:53.879Z,22.20
2022-10-22T03:24:34.737Z,22.38
2022-10-22T03:27:01.388Z,21.42
2022-10-22T03:29:32.001Z,20.05
2022-10-22T03:31:58.665Z,22.67
2022-10-22T03:34:32.213Z,20.25
2022-10-22T03:37:02.214Z,20.15
2022-10-22T03:39:32.194Z,19.23
2022-10-22T03:42:07.749Z,20.35
2022-10-22T03:44:37.258Z,20.42
2022-10-22T03:47:10.424Z,21.75
2022-10-22T03:49:37.100Z,20.52
2022-10-22T03:52:14.907Z,22.15
2022-10-22T03:54:42.575Z,20.48
2022-10-22T03:57:11.019Z,16.20
2022-10-22T03:59:39.847Z,19.23
2022-10-22T04:02:10.190Z,20.25
2022-10-22T04:04:37.792Z,21.55
2022-10-22T04:07:06.231Z,20.88
2022-10-22T04:09:33.759Z,22.58
2022-10-22T04:12:01.231Z,20.77
2022-10-22T04:14:27.906Z,21.23
2022-10-22T04:16:54.709Z,21.85
2022-10-22T04:19:21.578Z,21.73
2022-10-22T04:21:48.137Z,21.55
2022-10-22T04:24:21.027Z,21.42
2022-10-22T04:26:47.644Z,21.42
2022-10-22T04:29:22.689Z,20.92
2022-10-22T04:31:49.640Z,22.33
2022-10-22T04:34:27.817Z,23.23
2022-10-22T04:36:54.886Z,23.67
2022-10-22T04:39:21.534Z,23.15
2022-10-22T04:41:48.290Z,22.60
2022-10-22T04:44:23.289Z,21.38
2022-10-22T04:46:50.265Z,21.85
2022-10-22T04:49:17.093Z,21.48
2022-10-22T04:51:43.703Z,23.58
2022-10-22T04:54:10.300Z,23.92
2022-10-22T04:56:37.261Z,23.13
2022-10-22T04:59:07.347Z,24.40
2022-10-22T05:01:42.829Z,23.63
2022-10-22T05:04:13.908Z,24.23
2022-10-22T05:06:40.918Z,25.77
2022-10-22T05:09:12.361Z,23.38
2022-10-22T05:11:46.519Z,24.40
2022-10-22T05:14:13.471Z,25.80
2022-10-22T05:16:40.715Z,24.95
2022-10-22T05:19:08.976Z,23.92
2022-10-22T05:21:37.553Z,25.67
2022-10-22T05:24:04.855Z,22.88
2022-10-22T05:26:31.815Z,24.67
2022-10-22T05:28:58.508Z,23.95
2022-10-22T05:31:25.656Z,25.00
2022-10-22T05:33:52.312Z,24.77
2022-10-22T05:36:23.034Z,25.33
2022-10-22T05:38:50.520Z,24.35
2022-10-22T05:41:30.650Z,24.38
2022-10-22T05:43:59.000Z,26.45
2022-10-22T05:46:28.715Z,24.58
2022-10-22T05:49:00.240Z,24.63
2022-10-22T05:51:28.965Z,25.10
2022-10-22T05:53:59.390Z,24.98
2022-10-22T05:56:27.546Z,25.23
2022-10-22T05:58:54.477Z,22.55
2022-10-22T06:01:24.581Z,25.15
2022-10-22T06:03:54.813Z,26.60
2022-10-22T06:06:46.238Z,23.88
2022-10-22T06:09:27.724Z,25.92
2022-10-22T06:11:56.181Z,27.40
2022-10-22T06:14:25.114Z,27.05
2022-10-22T06:16:52.385Z,25.73
2022-10-22T06:19:21.349Z,23.85
2022-10-22T06:21:48.313Z,27.33
2022-10-22T06:24:15.973Z,27.08
2022-10-22T06:26:53.338Z,29.60
2022-10-22T06:29:20.131Z,27.20
2022-10-22T06:32:01.207Z,27.05
2022-10-22T06:34:27.942Z,28.23
2022-10-22T06:36:58.842Z,27.23
2022-10-22T06:39:25.356Z,27.52
2022-10-22T06:41:54.200Z,28.55
2022-10-22T06:44:21.071Z,28.40
2022-10-22T06:46:52.516Z,28.40
2022-10-22T06:49:27.407Z,28.60
2022-10-22T06:51:54.797Z,29.23
2022-10-22T06:54:23.040Z,30.35
2022-10-22T06:56:49.771Z,31.17
2022-10-22T06:59:16.291Z,29.73
2022-10-22T07:01:43.371Z,31.58
2022-10-22T07:05:03.267Z,34.90
2022-10-22T07:07:29.867Z,33.08
2022-10-22T07:10:17.196Z,33.78
2022-10-22T07:12:44.236Z,33.13
2022-10-22T07:15:17.368Z,34.15
2022-10-22T07:17:44.134Z,39.13
2022-10-22T07:20:12.501Z,37.33
2022-10-22T07:22:39.433Z,38.45
2022-10-22T07:25:07.281Z,39.00
2022-10-22T07:27:34.225Z,39.47
2022-10-22T07:30:01.708Z,41.08
2022-10-22T07:32:28.627Z,40.33
2022-10-22T07:34:55.345Z,41.55
2022-10-22T07:37:22.293Z,41.75
2022-10-22T07:39:49.972Z,43.15
2022-10-22T07:42:22.597Z,44.05
2022-10-22T07:44:49.068Z,45.72
2022-10-22T07:47:15.963Z,47.13
2022-10-22T07:49:42.484Z,46.95
2022-10-22T07:52:09.525Z,49.30
2022-10-22T07:54:36.076Z,44.85
2022-10-22T07:57:02.845Z,45.25
2022-10-22T07:59:29.573Z,47.70
2022-10-22T08:01:58.345Z,45.72
2022-10-22T08:04:24.961Z,47.00
2022-10-22T08:06:51.533Z,47.47
2022-10-22T08:09:18.175Z,45.75
2022-10-22T08:11:45.900Z,46.35
2022-10-22T08:14:12.617Z,49.70
2022-10-22T08:16:39.664Z,47.45
2022-10-22T08:19:07.491Z,48.63
2022-10-22T08:21:34.108Z,48.33
2022-10-22T08:24:01.861Z,47.40
2022-10-22T08:26:28.655Z,50.35
2022-10-22T08:28:55.234Z,47.33
2022-10-22T08:31:42.329Z,47.80
2022-10-22T08:34:11.650Z,47.25
2022-10-22T08:36:38.784Z,44.88
2022-10-22T08:39:05.432Z,45.08
2022-10-22T08:41:49.517Z,45.63
2022-10-22T08:44:39.474Z,45.40
2022-10-22T08:47:12.033Z,46.25
2022-10-22T08:49:42.728Z,46.45
2022-10-22T08:52:22.168Z,46.67
2022-10-22T08:54:52.071Z,44.70
2022-10-22T08:57:55.924Z,45.20
2022-10-22T09:00:46.454Z,43.20
2022-10-22T09:03:43.282Z,45.30
2022-10-22T09:13:48.402Z,43.03
2022-10-22T09:19:06.087Z,42.17
2022-10-22T09:22:08.249Z,40.90
2022-10-22T09:25:02.309Z,40.55
2022-10-22T09:27:31.671Z,39.97
2022-10-22T09:30:07.061Z,42.17
2022-10-22T09:32:33.760Z,38.78
2022-10-22T09:35:04.308Z,37.58
2022-10-22T09:37:30.936Z,36.88
2022-10-22T09:39:59.054Z,35.50
2022-10-22T09:42:34.945Z,36.08
2022-10-22T09:45:01.960Z,32.95
2022-10-22T09:47:43.807Z,33.70
2022-10-22T09:50:35.706Z,30.85
2022-10-22T09:53:27.246Z,29.20
2022-10-22T09:56:28.172Z,28.75
2022-10-22T09:58:58.409Z,27.17
2022-10-22T10:01:27.593Z,24.00
2022-10-22T10:04:15.252Z,24.40
2022-10-22T10:06:44.344Z,21.48
2022-10-22T10:09:21.215Z,20.48
2022-10-22T10:12:04.389Z,19.67
2022-10-22T10:14:41.460Z,20.27
2022-10-22T10:17:26.087Z,18.60
2022-10-22T10:20:29.154Z,17.92
2022-10-22T10:23:08.671Z,16.75
2022-10-22T10:26:03.733Z,15.18
2022-10-22T10:28:33.237Z,15.60
2022-10-22T10:31:40.168Z,15.85
2022-10-22T10:34:39.951Z,14.00
2022-10-22T10:37:19.472Z,13.75
2022-10-22T10:39:47.467Z,12.93
2022-10-22T10:42:31.031Z,13.25
2022-10-22T10:45:13.158Z,12.13
2022-10-22T10:47:49.194Z,10.18
2022-10-22T10:50:23.409Z,11.27
2022-10-22T10:53:38.552Z,10.55
2022-10-22T10:56:26.367Z,9.48
2022-10-22T10:59:16.225Z,8.57
2022-10-22T11:01:57.063Z,8.18
2022-10-22T11:05:01.405Z,8.13
2022-10-22T11:08:18.581Z,7.95
2022-10-22T11:10:50.754Z,7.55
2022-10-22T11:13:34.350Z,7.70
2022-10-22T11:16:12.196Z,6.45
2022-10-22T11:18:58.608Z,7.05
2022-10-22T11:21:40.715Z,6.32
2022-10-22T11:27:05.144Z,5.85
2022-10-22T11:29:42.500Z,5.47
2022-10-22T11:32:17.664Z,4.22
2022-10-22T11:34:50.552Z,4.85
2022-10-22T11:37:19.262Z,4.50
2022-10-22T11:39:54.330Z,3.67
2022-10-22T11:42:30.354Z,4.68
2022-10-22T11:45:05.208Z,4.35
2022-10-22T11:47:36.180Z,4.40
2022-10-22T11:50:23.001Z,3.22
2022-10-22T11:55:45.946Z,3.40
2022-10-22T11:58:31.923Z,2.70
2022-10-22T12:01:03.302Z,2.92
2022-10-22T12:03:32.868Z,3.53
2022-10-22T12:06:19.745Z,3.53
2022-10-22T12:08:57.313Z,2.80
2022-10-22T12:11:28.524Z,3.25
2022-10-22T12:14:16.944Z,3.73
2022-10-22T12:16:56.679Z,3.58
2022-10-22T12:19:45.008Z,2.88
2022-10-22T12:22:24.915Z,3.60
2022-10-22T12:25:01.308Z,3.65
2022-10-22T12:27:35.839Z,3.05
2022-10-22T12:30:22.466Z,2.78
2022-10-22T12:32:53.399Z,3.03
2022-10-22T12:35:23.882Z,2.90
2022-10-22T12:37:52.206Z,2.47
2022-10-22T12:40:25.761Z,2.90
2022-10-22T12:42:58.103Z,3.30
2022-10-22T12:45:30.409Z,2.83
2022-10-22T12:48:23.632Z,2.83
2022-10-22T12:50:57.111Z,2.85
2022-10-22T12:53:37.907Z,2.90
2022-10-22T12:56:11.805Z,2.63
2022-10-22T12:58:42.024Z,2.60
2022-10-22T13:01:12.480Z,2.80
2022-10-22T13:03:50.339Z,2.67
2022-10-22T13:06:19.994Z,2.38
2022-10-22T13:09:27.930Z,3.00
2022-10-22T13:11:59.311Z,2.42
2022-10-22T13:14:45.913Z,3.10
2022-10-22T13:17:24.081Z,3.53
2022-10-22T13:19:53.572Z,2.85
2022-10-22T13:22:34.149Z,3.00
2022-10-22T13:25:22.461Z,4.82
2022-10-22T13:28:01.508Z,4.40
2022-10-22T13:30:31.752Z,4.70
2022-10-22T13:33:02.128Z,4.82
2022-10-22T13:35:32.892Z,5.35
2022-10-22T13:38:00.254Z,5.07
2022-10-22T13:40:57.539Z,5.05
2022-10-22T13:43:25.179Z,5.38
2022-10-22T13:45:59.242Z,4.60
2022-10-22T13:48:28.973Z,4.57
2022-10-22T13:50:56.772Z,4.35
2022-10-22T13:53:26.768Z,4.68
2022-10-22T13:56:17.998Z,4.30
2022-10-22T13:58:50.994Z,4.10
2022-10-22T14:01:27.208Z,4.78
2022-10-22T14:03:58.147Z,5.00
2022-10-22T14:06:28.875Z,4.35
2022-10-22T14:09:09.083Z,4.25
2022-10-22T14:11:36.026Z,3.92
2022-10-22T14:14:08.815Z,3.65
2022-10-22T14:16:37.988Z,3.75
2022-10-22T14:19:17.784Z,4.18
2022-10-22T14:21:45.145Z,3.30
2022-10-22T14:24:25.972Z,3.50
2022-10-22T14:26:52.678Z,3.55
2022-10-22T14:29:23.372Z,3.55
2022-10-22T14:31:51.314Z,3.33
2022-10-22T14:34:18.018Z,3.50
2022-10-22T14:36:45.244Z,3.53
2022-10-22T14:39:13.442Z,3.20
2022-10-22T14:41:42.677Z,3.50
2022-10-22T14:44:12.893Z,3.70
2022-10-22T14:46:42.658Z,3.97
2022-10-22T14:49:12.009Z,3.38
2022-10-22T14:51:39.368Z,4.15
2022-10-22T14:54:07.653Z,4.22
2022-10-22T14:56:34.514Z,4.47
2022-10-22T14:59:01.784Z,3.92
2022-10-22T15:01:28.773Z,3.72
2022-10-22T15:04:10.054Z,3.58
2022-10-22T15:06:37.222Z,3.38
2022-10-22T15:09:14.373Z,3.50
2022-10-22T15:11:42.624Z,3.85
2022-10-22T15:14:09.650Z,3.88
2022-10-22T15:16:36.149Z,3.30
2022-10-22T15:19:04.028Z,3.65
2022-10-22T15:21:30.850Z,4.00
2022-10-22T15:23:57.864Z,4.13
2022-10-22T15:26:24.868Z,4.15
2022-10-22T15:28:55.032Z,4.45
2022-10-22T15:31:51.670Z,3.90
2022-10-22T15:34:24.749Z,4.72
2022-10-22T15:36:52.077Z,5.07
2022-10-22T15:39:21.071Z,4.50
2022-10-22T15:41:49.409Z,5.25
2022-10-22T15:44:25.852Z,5.85
2022-10-22T15:46:54.871Z,4.60
2022-10-22T15:49:24.431Z,4.20
2022-10-22T15:51:52.344Z,4.13
2022-10-22T15:54:24.365Z,4.97
2022-10-22T15:56:51.714Z,4.88
2022-10-22T15:59:18.692Z,5.28
2022-10-22T16:01:47.023Z,4.28
2022-10-22T16:04:14.401Z,4.43
2022-10-22T16:06:52.693Z,4.75
2022-10-22T16:09:22.576Z,4.50
2022-10-22T16:11:50.914Z,4.70
2022-10-22T16:14:20.687Z,5.38
2022-10-22T16:16:53.692Z,5.25
2022-10-22T16:19:22.331Z,4.97
2022-10-22T16:21:52.805Z,5.18
2022-10-22T16:24:20.852Z,4.80
2022-10-22T16:26:48.488Z,5.88
2022-10-22T16:29:15.424Z,5.40
2022-10-22T16:31:44.105Z,5.13
2022-10-22T16:34:11.500Z,5.18
2022-10-22T16:36:44.614Z,6.15
2022-10-22T16:39:11.636Z,5.22
2022-10-22T16:41:38.330Z,5.57
2022-10-22T16:44:07.916Z,5.20
2022-10-22T16:46:38.577Z,6.43
2022-10-22T16:49:06.614Z,5.60
2022-10-22T16:51:35.807Z,5.20
2022-10-22T16:54:04.545Z,5.18
2022-10-22T16:56:36.589Z,5.00
2022-10-22T16:59:05.038Z,4.75
2022-10-22T17:01:33.225Z,5.93
2022-10-22T17:04:02.692Z,5.38
2022-10-22T17:06:29.554Z,5.38
2022-10-22T17:08:57.593Z,4.97
2022-10-22T17:11:25.637Z,5.40
2022-10-22T17:13:54.408Z,5.25
2022-10-22T17:16:36.219Z,5.20
2022-10-22T17:19:04.022Z,5.55
2022-10-22T17:21:37.946Z,5.55
2022-10-22T17:24:04.695Z,5.65
2022-10-22T17:26:34.576Z,6.22
2022-10-22T17:29:01.153Z,6.70
2022-10-22T17:31:32.798Z,6.88
2022-10-22T17:34:00.192Z,7.38
2022-10-22T17:36:34.862Z,6.85
2022-10-22T17:39:06.666Z,7.22
2022-10-22T17:41:36.866Z,7.55
2022-10-22T17:44:06.455Z,7.72
2022-10-22T17:46:36.157Z,7.10
2022-10-22T17:49:04.780Z,7.50
2022-10-22T17:51:32.289Z,7.93
2022-10-22T17:53:59.322Z,7.65
2022-10-22T17:56:30.283Z,8.57
2022-10-22T17:59:00.192Z,8.15
2022-10-22T18:01:33.630Z,6.97
2022-10-22T18:04:05.853Z,7.55
2022-10-22T18:06:33.085Z,7.55
2022-10-22T18:08:59.784Z,8.88
2022-10-22T18:11:29.575Z,9.23
2022-10-22T18:13:58.121Z,9.45
2022-10-22T18:16:28.373Z,9.45
2022-10-22T18:18:56.683Z,9.50
2022-10-22T18:21:26.845Z,9.77
2022-10-22T18:23:53.828Z,10.02
2022-10-22T18:26:24.414Z,10.55
2022-10-22T18:28:53.422Z,10.38
2022-10-22T18:31:24.071Z,10.80
2022-10-22T18:33:51.439Z,9.63
2022-10-22T18:36:20.626Z,11.00
2022-10-22T18:38:58.467Z,11.32
2022-10-22T18:41:27.987Z,10.75
2022-10-22T18:43:57.333Z,11.02
2022-10-22T18:46:24.257Z,10.75
2022-10-22T18:48:55.429Z,11.93
2022-10-22T18:51:24.448Z,10.45
2022-10-22T18:54:11.244Z,11.77
2022-10-22T18:56:43.823Z,11.82
2022-10-22T18:59:20.535Z,12.65
2022-10-22T19:01:48.034Z,11.98
2022-10-22T19:04:20.432Z,12.57
2022-10-22T19:06:47.040Z,12.35
2022-10-22T19:09:16.117Z,13.95
2022-10-22T19:11:44.310Z,14.25
2022-10-22T19:14:12.886Z,13.15
2022-10-22T19:16:39.379Z,12.77
2022-10-22T19:19:08.522Z,12.70
2022-10-22T19:21:39.436Z,12.73
2022-10-22T19:24:07.437Z,12.90
2022-10-22T19:26:34.344Z,13.55
2022-10-22T19:29:01.276Z,12.48
2022-10-22T19:31:31.340Z,14.48
2022-10-22T19:33:59.737Z,14.40
2022-10-22T19:36:30.346Z,13.85
2022-10-22T19:39:02.013Z,14.43
2022-10-22T19:41:29.767Z,14.30
2022-10-22T19:43:58.042Z,15.15
2022-10-22T19:46:26.058Z,14.90
2022-10-22T19:48:54.403Z,14.90
2022-10-22T19:51:23.104Z,15.95
2022-10-22T19:53:51.329Z,15.93
2022-10-22T19:56:20.628Z,18.45
2022-10-22T19:59:01.156Z,18.08
2022-10-22T20:01:28.551Z,18.45
2022-10-22T20:03:55.810Z,18.40
2022-10-22T20:06:22.935Z,18.40
2022-10-22T20:09:08.287Z,18.58
2022-10-22T20:11:35.252Z,18.23
2022-10-22T20:14:02.623Z,19.67
2022-10-22T20:16:30.248Z,18.55
2022-10-22T20:19:02.397Z,18.45
2022-10-22T20:21:29.656Z,18.23
2022-10-22T20:23:57.526Z,18.52
2022-10-22T20:26:28.340Z,17.63
2022-10-22T20:28:57.816Z,18.08
2022-10-22T20:31:28.720Z,19.83
2022-10-22T20:33:58.129Z,17.13
2022-10-22T20:36:33.204Z,18.20
2022-10-22T20:39:03.220Z,17.35
2022-10-22T20:41:40.789Z,18.35
2022-10-22T20:44:13.585Z,18.90
2022-10-22T20:46:40.219Z,17.73
2022-10-22T20:49:18.023Z,17.58
2022-10-22T20:51:45.194Z,16.83
2022-10-22T20:54:13.860Z,17.58
2022-10-22T20:56:42.391Z,17.42
2022-10-22T20:59:13.861Z,17.67
2022-10-22T21:01:49.101Z,16.90
2022-10-22T21:04:17.138Z,17.20
2022-10-22T21:06:52.152Z,17.38
2022-10-22T21:09:18.899Z,16.08
2022-10-22T21:11:46.081Z,15.57
2022-10-22T21:14:15.357Z,15.20
2022-10-22T21:16:44.479Z,16.92
2022-10-22T21:19:12.633Z,15.43
2022-10-22T21:21:39.919Z,15.02
2022-10-22T21:24:07.461Z,15.68
2022-10-22T21:26:41.258Z,14.68
2022-10-22T21:29:09.605Z,13.80
2022-10-22T21:31:37.605Z,14.82
2022-10-22T21:34:04.114Z,13.02
2022-10-22T21:36:31.410Z,14.73
2022-10-22T21:38:57.946Z,13.45
2022-10-22T21:41:24.801Z,14.82
2022-10-22T21:43:52.381Z,13.52
2022-10-22T21:46:20.169Z,15.15
2022-10-22T21:48:47.530Z,14.35
2022-10-22T21:51:20.538Z,15.30
2022-10-22T21:53:47.602Z,13.88
2022-10-22T21:56:26.047Z,14.45
2022-10-22T21:58:53.011Z,14.90
2022-10-22T22:01:20.012Z,14.20
2022-10-22T22:03:53.128Z,14.30
2022-10-22T22:06:23.662Z,14.57
2022-10-22T22:08:53.377Z,14.35
2022-10-22T22:11:26.674Z,14.35
2022-10-22T22:13:55.769Z,15.07
2022-10-22T22:16:30.437Z,13.82
2022-10-22T22:18:59.989Z,14.43
2022-10-22T22:21:27.394Z,14.65
2022-10-22T22:23:54.313Z,15.60
2022-10-22T22:26:28.552Z,14.90
2022-10-22T22:29:01.009Z,13.98
2022-10-22T22:31:29.406Z,15.15
2022-10-22T22:34:05.451Z,14.20
2022-10-22T22:36:38.567Z,15.05
2022-10-22T22:39:07.294Z,16.30
2022-10-22T22:41:35.456Z,16.10
2022-10-22T22:44:02.263Z,15.85
2022-10-22T22:46:30.127Z,15.85
2022-10-22T22:48:56.924Z,16.10
2022-10-22T22:51:24.298Z,16.52
2022-10-22T22:54:11.191Z,16.90
2022-10-22T22:56:37.812Z,16.77
2022-10-22T22:59:06.093Z,16.02
2022-10-22T23:01:38.013Z,17.15
2022-10-22T23:04:16.421Z,15.63
2022-10-22T23:06:43.129Z,17.85
2022-10-22T23:11:47.946Z,17.50
2022-10-22T23:14:17.670Z,17.75
2022-10-22T23:16:49.770Z,18.48
2022-10-22T23:19:19.083Z,17.67
2022-10-22T23:22:01.649Z,17.60
2022-10-22T23:24:29.746Z,18.83
2022-10-22T23:27:13.840Z,20.17
2022-10-22T23:29:40.453Z,18.60
2022-10-22T23:32:16.409Z,19.13
2022-10-22T23:34:42.986Z,18.58
2022-10-22T23:37:15.051Z,20.15
2022-10-22T23:42:10.620Z,19.10
2022-10-22T23:44:37.183Z,19.88
2022-10-22T23:47:03.880Z,19.23
2022-10-22T23:49:30.450Z,20.55
2022-10-22T23:51:56.999Z,20.42
2022-10-22T23:54:23.772Z,20.25
2022-10-22T23:56:50.369Z,21.48
2022-10-22T23:59:16.985Z,21.05
